Marquez, Texas
Current Conditions -  °F | °C
As of 11:15 AM on Thursday 30 Oct 2014 (Local Time) from KLXY Reporting Station
Scattered Clouds Scattered Clouds  
Wind Chill: 67°   Ceiling: Unl
Heat Index: 67°   Visibility: 10mi
Dew Point: 49°   Wind: 8mph
Humidity: 53%   Direction: 160°SSE
Pressure: 30.17"   Gusts: NA
Location:  31.24°N, 96.25°W
Report Text: KLXY 301615Z AUTO 16007KT 10SM SCT080 20/10 A3017 RMK AO2 T01950097
Loading
Personal Weather Stations






























Interactive Weather Map
Tropical Storm Tracking
New forecast layout! Learn more

10-Day Weather Forecast

Advertisements
Track Severe Weather on mobile